createdAt,value
2018-12-31T00:00:10.718Z,78271.27
2018-12-31T00:02:40.131Z,78273.27
2018-12-31T00:05:09.049Z,78280.28
2018-12-31T00:07:35.011Z,78291.30
2018-12-31T00:10:01.348Z,78289.30
2018-12-31T00:12:27.293Z,78289.30
2018-12-31T00:14:53.201Z,78286.29
2018-12-31T00:17:19.087Z,78280.28
2018-12-31T00:19:44.996Z,78282.28
2018-12-31T00:22:10.889Z,78276.28
2018-12-31T00:24:36.781Z,78276.28
2018-12-31T00:27:03.149Z,78287.30
2018-12-31T00:29:31.836Z,78288.30
2018-12-31T00:31:57.786Z,78288.30
2018-12-31T00:34:26.701Z,78294.30
2018-12-31T00:36:52.585Z,78291.30
2018-12-31T00:39:18.528Z,78296.30
2018-12-31T00:41:49.328Z,78295.30
2018-12-31T00:44:18.062Z,78295.30
2018-12-31T00:46:49.591Z,78296.30
2018-12-31T00:49:18.688Z,78290.30
2018-12-31T00:51:47.838Z,78297.30
2018-12-31T00:54:13.727Z,78295.30
2018-12-31T00:56:39.739Z,78303.31
2018-12-31T00:59:08.734Z,78299.30
2018-12-31T01:01:37.629Z,78297.30
2018-12-31T01:04:06.594Z,78308.31
2018-12-31T01:06:35.532Z,78308.31
2018-12-31T01:09:01.458Z,78312.32
2018-12-31T01:11:30.410Z,78314.33
2018-12-31T01:13:56.308Z,78311.32
2018-12-31T01:16:25.022Z,78320.33
2018-12-31T01:18:50.916Z,78325.34
2018-12-31T01:21:18.855Z,78327.34
2018-12-31T01:23:47.943Z,78334.34
2018-12-31T01:26:19.312Z,78327.34
2018-12-31T01:28:48.086Z,78335.34
2018-12-31T01:31:15.022Z,78329.34
2018-12-31T01:33:43.917Z,78331.34
2018-12-31T01:36:12.902Z,78338.35
2018-12-31T01:38:41.916Z,78330.34
2018-12-31T01:41:10.874Z,78336.35
2018-12-31T01:43:36.859Z,78335.34
2018-12-31T01:46:05.793Z,78344.36
2018-12-31T01:48:35.426Z,78344.36
2018-12-31T01:51:01.316Z,78345.36
2018-12-31T01:53:30.125Z,78343.36
2018-12-31T01:55:59.074Z,78347.36
2018-12-31T01:58:28.207Z,78347.36
2018-12-31T02:00:56.883Z,78348.36
2018-12-31T02:03:25.964Z,78350.37
2018-12-31T02:05:54.953Z,78356.38
2018-12-31T02:08:20.963Z,78360.38
2018-12-31T02:10:49.905Z,78370.39
2018-12-31T02:13:18.986Z,78367.39
2018-12-31T02:15:47.957Z,78366.39
2018-12-31T02:18:13.822Z,78362.38
2018-12-31T02:20:42.979Z,78358.38
2018-12-31T02:23:08.869Z,78363.39
2018-12-31T02:25:37.591Z,78360.38
2018-12-31T02:28:04.402Z,78361.38
2018-12-31T02:30:33.361Z,78365.39
2018-12-31T02:33:02.315Z,78373.40
2018-12-31T02:35:31.298Z,78368.39
2018-12-31T02:38:00.575Z,78368.39
2018-12-31T02:40:26.513Z,78372.39
2018-12-31T02:42:55.185Z,78372.39
2018-12-31T02:45:24.103Z,78368.39
2018-12-31T02:47:53.010Z,78364.39
2018-12-31T02:50:18.893Z,78365.39
2018-12-31T02:52:44.783Z,78367.39
2018-12-31T02:55:10.684Z,78364.39
2018-12-31T02:57:36.944Z,78368.39
2018-12-31T03:00:03.632Z,78364.39
2018-12-31T03:02:29.538Z,78369.39
2018-12-31T03:04:58.210Z,78372.39
2018-12-31T03:07:24.404Z,78371.39
2018-12-31T03:09:50.317Z,78361.38
2018-12-31T03:12:16.200Z,78352.38
2018-12-31T03:14:42.153Z,78352.38
2018-12-31T03:17:11.072Z,78357.38
2018-12-31T03:19:39.971Z,78362.38
2018-12-31T03:22:08.890Z,78369.39
2018-12-31T03:24:34.776Z,78370.39
2018-12-31T03:27:03.755Z,78365.39
2018-12-31T03:29:30.403Z,78368.39
2018-12-31T03:31:59.373Z,78369.39
2018-12-31T03:34:28.278Z,78375.40
2018-12-31T03:36:57.220Z,78388.41
2018-12-31T03:39:26.330Z,78380.41
2018-12-31T03:41:55.272Z,78384.41
2018-12-31T03:44:24.178Z,78377.41
2018-12-31T03:46:50.122Z,78374.40
2018-12-31T03:49:19.377Z,78376.41
2018-12-31T03:51:48.100Z,78372.39
2018-12-31T03:54:18.253Z,78378.41
2018-12-31T03:56:44.113Z,78378.41
2018-12-31T03:59:12.777Z,78382.41
2018-12-31T04:01:41.679Z,78390.42
2018-12-31T04:04:10.632Z,78384.41
2018-12-31T04:06:39.536Z,78388.41
2018-12-31T04:09:05.472Z,78384.41
2018-12-31T04:11:34.453Z,78382.41
2018-12-31T04:14:03.438Z,78378.41
2018-12-31T04:16:32.451Z,78376.41
2018-12-31T04:18:58.344Z,78375.40
2018-12-31T04:21:27.290Z,78376.41
2018-12-31T04:23:56.338Z,78379.41
2018-12-31T04:26:22.244Z,78379.41
2018-12-31T04:28:50.982Z,78381.41
2018-12-31T04:31:20.084Z,78385.41
2018-12-31T04:33:49.006Z,78386.41
2018-12-31T04:36:18.322Z,78390.42
2018-12-31T04:38:49.518Z,78388.41
2018-12-31T04:41:18.452Z,78389.42
2018-12-31T04:43:49.375Z,78392.42
2018-12-31T04:46:18.387Z,78392.42
2018-12-31T04:48:49.995Z,78394.42
2018-12-31T04:51:18.693Z,78400.43
2018-12-31T04:53:50.783Z,78394.42
2018-12-31T04:56:20.370Z,78393.42
2018-12-31T04:58:49.037Z,78388.41
2018-12-31T05:01:14.938Z,78394.42
2018-12-31T05:03:43.848Z,78396.42
2018-12-31T05:06:09.791Z,78397.42
2018-12-31T05:08:38.748Z,78392.42
2018-12-31T05:11:04.646Z,78393.42
2018-12-31T05:13:33.634Z,78400.43
2018-12-31T05:16:02.552Z,78403.44
2018-12-31T05:18:31.556Z,78404.44
2018-12-31T05:21:00.451Z,78404.44
2018-12-31T05:23:29.400Z,78400.43
2018-12-31T05:25:58.420Z,78403.44
2018-12-31T05:28:27.433Z,78402.44
2018-12-31T05:30:53.337Z,78402.44
2018-12-31T05:33:19.224Z,78401.44
2018-12-31T05:35:45.122Z,78405.44
2018-12-31T05:38:11.039Z,78410.44
2018-12-31T05:40:36.934Z,78404.44
2018-12-31T05:43:02.794Z,78410.44
2018-12-31T05:45:28.816Z,78408.44
2018-12-31T05:47:54.705Z,78408.44
2018-12-31T05:50:20.647Z,78408.44
2018-12-31T05:52:50.068Z,78416.45
2018-12-31T05:55:16.014Z,78412.45
2018-12-31T05:57:44.759Z,78414.45
2018-12-31T06:00:13.456Z,78410.44
2018-12-31T06:02:42.532Z,78412.45
2018-12-31T06:05:08.436Z,78411.45
2018-12-31T06:07:37.102Z,78412.45
2018-12-31T06:10:03.044Z,78412.45
2018-12-31T06:12:28.940Z,78409.44
2018-12-31T06:14:54.842Z,78407.44
2018-12-31T06:17:23.605Z,78404.44
2018-12-31T06:19:49.509Z,78404.44
2018-12-31T06:22:15.420Z,78406.44
2018-12-31T06:24:41.313Z,78409.44
2018-12-31T06:27:07.252Z,78409.44
2018-12-31T06:29:33.156Z,78404.44
2018-12-31T06:32:01.841Z,78410.44
2018-12-31T06:34:30.867Z,78401.44
2018-12-31T06:36:59.829Z,78404.44
2018-12-31T06:39:25.723Z,78413.45
2018-12-31T06:41:54.765Z,78410.44
2018-12-31T06:44:20.757Z,78410.44
2018-12-31T06:46:49.741Z,78407.44
2018-12-31T06:49:15.843Z,78411.45
2018-12-31T06:51:41.741Z,78420.45
2018-12-31T06:54:07.681Z,78423.45
2018-12-31T06:56:36.758Z,78416.45
2018-12-31T06:59:02.711Z,78412.45
2018-12-31T07:01:37.181Z,78412.45
2018-12-31T07:07:17.535Z,78404.44
2018-12-31T07:09:50.893Z,78408.44
2018-12-31T07:12:35.001Z,78409.44
2018-12-31T07:15:11.831Z,78408.44
2018-12-31T07:17:41.180Z,78408.44
2018-12-31T07:22:51.851Z,78408.44
2018-12-31T07:25:20.817Z,78408.44
2018-12-31T07:27:49.733Z,78410.44
2018-12-31T07:30:15.634Z,78414.45
2018-12-31T07:32:41.525Z,78415.45
2018-12-31T07:35:07.769Z,78421.45
2018-12-31T07:37:36.464Z,78416.45
2018-12-31T07:40:05.893Z,78417.45
2018-12-31T07:42:34.992Z,78413.45
2018-12-31T07:45:04.275Z,78423.45
2018-12-31T07:47:30.184Z,78429.47
2018-12-31T07:49:56.079Z,78425.46
2018-12-31T07:52:22.003Z,78426.46
2018-12-31T07:54:47.959Z,78424.46
2018-12-31T07:57:13.913Z,78430.47
2018-12-31T07:59:39.827Z,78432.47
2018-12-31T08:02:05.723Z,78427.47
2018-12-31T08:04:31.633Z,78429.47
2018-12-31T08:06:57.567Z,78433.47
2018-12-31T08:09:23.461Z,78439.48
2018-12-31T08:11:49.383Z,78437.48
2018-12-31T08:14:18.067Z,78435.47
2018-12-31T08:16:49.589Z,78437.48
2018-12-31T08:19:15.494Z,78436.48
2018-12-31T08:21:41.393Z,78441.48
2018-12-31T08:24:10.414Z,78444.48
2018-12-31T08:26:39.312Z,78442.48
2018-12-31T08:29:08.240Z,78438.48
2018-12-31T08:31:37.131Z,78433.47
2018-12-31T08:34:06.137Z,78488.55
2018-12-31T08:36:32.042Z,78546.62
2018-12-31T08:38:57.976Z,78564.64
2018-12-31T08:41:27.365Z,78572.66
2018-12-31T08:43:56.083Z,78511.57
2018-12-31T08:46:25.013Z,78482.53
2018-12-31T08:48:50.968Z,78464.52
2018-12-31T08:51:19.864Z,78458.50
2018-12-31T08:53:49.008Z,78453.50
2018-12-31T08:56:15.009Z,78462.52
2018-12-31T08:58:40.902Z,78459.51
2018-12-31T09:01:10.342Z,78451.49
2018-12-31T09:03:39.247Z,78453.50
2018-12-31T09:06:05.198Z,78448.48
2018-12-31T09:08:31.095Z,78446.48
2018-12-31T09:10:56.993Z,78434.47
2018-12-31T09:13:22.887Z,78430.47
2018-12-31T09:15:49.123Z,78427.47
2018-12-31T09:18:15.025Z,78423.45
2018-12-31T09:20:41.003Z,78424.46
2018-12-31T09:23:06.981Z,78424.46
2018-12-31T09:25:32.943Z,78429.47
2018-12-31T09:27:59.049Z,78422.45
2018-12-31T09:30:24.974Z,78416.45
2018-12-31T09:32:50.902Z,78415.45
2018-12-31T09:35:19.861Z,78415.45
2018-12-31T09:37:45.746Z,78415.45
2018-12-31T09:40:11.664Z,78414.45
2018-12-31T09:42:37.569Z,78410.44
2018-12-31T09:45:03.472Z,78410.44
2018-12-31T09:47:29.373Z,78409.44
2018-12-31T09:49:55.287Z,78412.45
2018-12-31T09:52:21.575Z,78406.44
2018-12-31T09:54:49.457Z,78433.47
2018-12-31T09:57:15.475Z,78495.55
2018-12-31T09:59:41.319Z,78537.61
2018-12-31T10:02:07.266Z,78543.61
2018-12-31T10:04:35.988Z,78548.62
2018-12-31T10:07:01.920Z,78522.59
2018-12-31T10:09:27.994Z,78488.55
2018-12-31T10:11:53.928Z,78463.52
2018-12-31T10:14:19.826Z,78461.51
2018-12-31T10:16:45.725Z,78446.48
2018-12-31T10:19:11.682Z,78448.48
2018-12-31T10:21:41.097Z,78448.48
2018-12-31T10:24:10.244Z,78442.48
2018-12-31T10:26:36.143Z,78450.49
2018-12-31T10:29:02.047Z,78448.48
2018-12-31T10:31:31.363Z,78444.48
2018-12-31T10:33:57.263Z,78446.48
2018-12-31T10:36:23.157Z,78436.48
2018-12-31T10:38:51.182Z,78434.47
2018-12-31T10:41:19.973Z,78435.47
2018-12-31T10:43:45.920Z,78433.47
2018-12-31T10:46:14.880Z,78431.47
2018-12-31T10:48:40.772Z,78419.45
2018-12-31T10:51:06.723Z,78414.45
2018-12-31T10:53:35.847Z,78419.45
2018-12-31T10:56:01.752Z,78412.45
2018-12-31T10:58:30.791Z,78422.45
2018-12-31T11:00:59.791Z,78418.45
2018-12-31T11:03:25.689Z,78416.45
2018-12-31T11:05:54.630Z,78411.45
2018-12-31T11:08:23.991Z,78409.44
2018-12-31T11:10:49.897Z,78407.44
2018-12-31T11:13:15.846Z,78405.44
2018-12-31T11:15:41.741Z,78406.44
2018-12-31T11:18:10.419Z,78408.44
2018-12-31T11:20:39.540Z,78401.44
2018-12-31T11:23:08.456Z,78400.43
2018-12-31T11:25:37.834Z,78398.43
2018-12-31T11:28:06.555Z,78400.43
2018-12-31T11:30:32.462Z,78413.45
2018-12-31T11:33:01.127Z,78406.44
2018-12-31T11:35:29.953Z,78400.43
2018-12-31T11:37:55.823Z,78390.42
2018-12-31T11:40:21.779Z,78388.41
2018-12-31T11:42:47.672Z,78385.41
2018-12-31T11:45:13.585Z,78386.41
2018-12-31T11:47:39.470Z,78384.41
2018-12-31T11:50:05.417Z,78382.41
2018-12-31T11:52:31.387Z,78379.41
2018-12-31T11:54:57.326Z,78370.39
2018-12-31T11:57:23.222Z,78368.39
2018-12-31T11:59:49.127Z,78373.40
2018-12-31T12:02:15.030Z,78376.41
2018-12-31T12:04:44.413Z,78377.41
2018-12-31T12:07:13.500Z,78371.39
2018-12-31T12:09:39.391Z,78374.40
2018-12-31T12:12:08.492Z,78365.39
2018-12-31T12:14:37.681Z,78362.38
2018-12-31T12:17:06.627Z,78362.38
2018-12-31T12:19:35.543Z,78351.37
2018-12-31T12:22:01.481Z,78354.38
2018-12-31T12:24:30.859Z,78354.38
2018-12-31T12:26:57.620Z,78355.38
2018-12-31T12:29:23.569Z,78356.38
2018-12-31T12:31:50.185Z,78349.37
2018-12-31T12:34:18.913Z,78344.36
2018-12-31T12:36:44.864Z,78348.36
2018-12-31T12:39:10.745Z,78344.36
2018-12-31T12:41:36.754Z,78347.36
2018-12-31T12:44:05.749Z,78347.36
2018-12-31T12:46:34.861Z,78346.36
2018-12-31T12:49:00.813Z,78354.38
2018-12-31T12:51:26.723Z,78356.38
2018-12-31T12:53:52.658Z,78363.39
2018-12-31T12:56:19.120Z,78356.38
2018-12-31T12:58:45.169Z,78347.36
2018-12-31T13:01:11.083Z,78352.38
2018-12-31T13:03:39.883Z,78357.38
2018-12-31T13:06:08.946Z,78346.36
2018-12-31T13:08:34.847Z,78354.38
2018-12-31T13:11:00.994Z,78346.36
2018-12-31T13:13:26.926Z,78352.38
2018-12-31T13:15:55.614Z,78361.38
2018-12-31T13:18:24.580Z,78363.39
2018-12-31T13:20:50.486Z,78349.37
2018-12-31T13:23:16.395Z,78338.35
2018-12-31T13:25:42.288Z,78357.38
2018-12-31T13:28:08.195Z,78351.37
2018-12-31T13:30:37.751Z,78344.36
2018-12-31T13:33:03.659Z,78345.36
2018-12-31T13:35:32.631Z,78345.36
2018-12-31T13:38:01.560Z,78343.36
2018-12-31T13:40:27.471Z,78340.36
2018-12-31T13:42:56.460Z,78352.38
2018-12-31T13:45:22.355Z,78362.38
2018-12-31T13:47:48.700Z,78360.38
2018-12-31T13:50:20.325Z,78362.38
2018-12-31T13:52:46.244Z,78358.38
2018-12-31T13:55:12.268Z,78368.39
2018-12-31T13:57:38.176Z,78353.38
2018-12-31T14:00:05.586Z,78350.37
2018-12-31T14:02:31.873Z,78353.38
2018-12-31T14:04:57.796Z,78354.38
2018-12-31T14:07:23.962Z,78371.39
2018-12-31T14:09:52.619Z,78382.41
2018-12-31T14:12:21.970Z,78376.41
2018-12-31T14:14:50.649Z,78386.41
2018-12-31T14:17:16.590Z,78380.41
2018-12-31T14:19:42.499Z,78361.38
2018-12-31T14:22:11.562Z,78349.37
2018-12-31T14:24:40.477Z,78344.36
2018-12-31T14:27:06.421Z,78353.38
2018-12-31T14:29:35.320Z,78343.36
2018-12-31T14:32:01.219Z,78342.36
2018-12-31T14:34:30.284Z,78356.38
2018-12-31T14:36:56.676Z,78352.38
2018-12-31T14:39:22.999Z,78340.36
2018-12-31T14:41:48.897Z,78348.36
2018-12-31T14:44:14.801Z,78352.38
2018-12-31T14:46:40.719Z,78345.36
2018-12-31T14:49:07.021Z,78344.36
2018-12-31T14:51:35.891Z,78340.36
2018-12-31T14:54:01.840Z,78348.36
2018-12-31T14:56:27.837Z,78346.36
2018-12-31T14:58:53.736Z,78350.37
2018-12-31T15:01:20.361Z,78346.36
2018-12-31T15:03:48.584Z,78351.37
2018-12-31T15:06:14.343Z,78360.38
2018-12-31T15:08:40.241Z,78360.38
2018-12-31T15:11:06.143Z,78357.38
2018-12-31T15:13:32.345Z,78356.38
2018-12-31T15:15:58.236Z,78353.38
2018-12-31T15:18:24.448Z,78353.38
2018-12-31T15:20:50.333Z,78352.38
2018-12-31T15:23:16.343Z,78350.37
2018-12-31T15:25:42.234Z,78349.37
2018-12-31T15:28:08.135Z,78340.36
2018-12-31T15:30:34.062Z,78336.35
2018-12-31T15:33:00.303Z,78388.41
2018-12-31T15:35:29.085Z,78378.41
2018-12-31T15:37:54.991Z,78380.41
2018-12-31T15:40:23.905Z,78364.39
2018-12-31T15:42:53.421Z,78351.37
2018-12-31T15:45:19.688Z,78356.38
2018-12-31T15:47:45.670Z,78354.38
2018-12-31T15:50:11.910Z,78352.38
2018-12-31T15:52:40.602Z,78367.39
2018-12-31T15:55:06.495Z,78354.38
2018-12-31T15:57:32.408Z,78348.36
2018-12-31T15:59:58.292Z,78340.36
2018-12-31T16:02:24.293Z,78340.36
2018-12-31T16:04:50.190Z,78342.36
2018-12-31T16:07:19.135Z,78354.38
2018-12-31T16:09:45.030Z,78352.38
2018-12-31T16:12:13.995Z,78351.37
2018-12-31T16:15:36.168Z,78350.37
2018-12-31T16:22:31.367Z,78353.38
2018-12-31T16:24:09.043Z,78340.36
2018-12-31T16:26:34.950Z,78325.34
2018-12-31T16:29:01.264Z,78321.33
2018-12-31T16:31:27.599Z,78324.34
2018-12-31T16:33:53.541Z,78336.35
2018-12-31T16:36:19.434Z,78333.34
2018-12-31T16:38:48.134Z,78328.34
2018-12-31T16:41:19.597Z,78328.34
2018-12-31T16:43:48.715Z,78324.34
2018-12-31T16:46:14.707Z,78335.34
2018-12-31T16:48:43.953Z,78326.34
2018-12-31T16:51:09.855Z,78319.33
2018-12-31T16:53:38.519Z,78318.33
2018-12-31T16:56:04.421Z,78313.32
2018-12-31T16:58:33.468Z,78308.31
2018-12-31T17:00:59.355Z,78311.32
2018-12-31T17:03:28.072Z,78306.31
2018-12-31T17:05:53.982Z,78302.31
2018-12-31T17:08:19.871Z,78302.31
2018-12-31T17:10:45.806Z,78297.30
2018-12-31T17:13:11.709Z,78309.31
2018-12-31T17:15:38.056Z,78303.31
2018-12-31T17:18:03.963Z,78301.31
2018-12-31T17:20:30.163Z,78301.31
2018-12-31T17:22:56.064Z,78304.31
2018-12-31T17:25:22.019Z,78305.31
2018-12-31T17:27:50.918Z,78307.31
2018-12-31T17:30:18.810Z,78308.31
2018-12-31T17:32:44.711Z,78312.32
2018-12-31T17:35:13.404Z,78308.31
2018-12-31T17:37:39.303Z,78304.31
2018-12-31T17:40:08.235Z,78305.31
2018-12-31T17:42:37.140Z,78304.31
2018-12-31T17:45:06.113Z,78306.31
2018-12-31T17:47:35.059Z,78300.31
2018-12-31T17:50:04.996Z,78300.31
2018-12-31T17:52:34.490Z,78300.31
2018-12-31T17:55:03.248Z,78296.30
2018-12-31T17:57:32.340Z,78289.30
2018-12-31T18:00:06.593Z,78279.28
2018-12-31T18:02:32.649Z,78280.28
2018-12-31T18:05:01.763Z,78281.28
2018-12-31T18:07:30.774Z,78288.30
2018-12-31T18:09:59.833Z,78285.29
2018-12-31T18:12:25.730Z,78283.28
2018-12-31T18:14:55.013Z,78280.28
2018-12-31T18:17:23.955Z,78279.28
2018-12-31T18:19:52.906Z,78282.28
2018-12-31T18:22:18.823Z,78279.28
2018-12-31T18:24:50.904Z,78270.27
2018-12-31T18:27:19.270Z,78273.27
2018-12-31T18:29:48.112Z,78269.27
2018-12-31T18:32:14.032Z,78270.27
2018-12-31T18:34:39.939Z,78271.27
2018-12-31T18:37:08.984Z,78266.27
2018-12-31T18:39:34.884Z,78248.24
2018-12-31T18:42:01.173Z,78245.23
2018-12-31T18:44:27.073Z,78250.25
2018-12-31T18:46:55.751Z,78254.25
2018-12-31T18:49:21.647Z,78262.27
2018-12-31T18:51:50.563Z,78271.27
2018-12-31T18:54:19.610Z,78269.27
2018-12-31T18:56:45.581Z,78267.27
2018-12-31T18:59:14.683Z,78268.27
2018-12-31T19:01:40.591Z,78267.27
2018-12-31T19:04:06.514Z,78276.28
2018-12-31T19:06:32.419Z,78271.27
2018-12-31T19:08:58.320Z,78265.27
2018-12-31T19:11:24.242Z,78264.27
2018-12-31T19:13:50.129Z,78267.27
2018-12-31T19:16:16.085Z,78256.25
2018-12-31T19:18:42.036Z,78256.25
2018-12-31T19:21:07.920Z,78266.27
2018-12-31T19:23:36.933Z,78263.27
2018-12-31T19:26:06.037Z,78254.25
2018-12-31T19:28:40.181Z,78263.27
2018-12-31T19:31:06.132Z,78276.28
2018-12-31T19:33:34.832Z,78260.26
2018-12-31T19:36:03.768Z,78250.25
2018-12-31T19:38:30.127Z,78250.25
2018-12-31T19:40:58.839Z,78247.24
2018-12-31T19:43:25.078Z,78248.24
2018-12-31T19:45:53.858Z,78244.23
2018-12-31T19:48:19.783Z,78260.26
2018-12-31T19:50:49.173Z,78260.26
2018-12-31T19:53:15.537Z,78243.23
2018-12-31T19:55:41.816Z,78248.24
2018-12-31T19:58:07.717Z,78259.26
2018-12-31T20:00:33.628Z,78253.25
2018-12-31T20:03:02.553Z,78249.24
2018-12-31T20:05:28.466Z,78248.24
2018-12-31T20:07:59.491Z,78247.24
2018-12-31T20:10:28.436Z,78246.23
2018-12-31T20:12:57.550Z,78242.23
2018-12-31T20:15:23.436Z,78239.23
2018-12-31T20:17:49.464Z,78232.22
2018-12-31T20:20:18.359Z,78231.22
2018-12-31T20:22:49.165Z,78236.23
2018-12-31T20:25:15.120Z,78235.23
2018-12-31T20:27:43.827Z,78228.22
2018-12-31T20:30:09.862Z,78226.22
2018-12-31T20:32:35.762Z,78216.20
2018-12-31T20:35:01.664Z,78216.20
2018-12-31T20:37:28.222Z,78215.20
2018-12-31T20:39:54.201Z,78204.19
2018-12-31T20:42:23.244Z,78210.20
2018-12-31T20:44:49.185Z,78206.19
2018-12-31T20:47:15.083Z,78208.20
2018-12-31T20:49:41.020Z,78206.19
2018-12-31T20:52:09.945Z,78208.20
2018-12-31T20:54:36.292Z,78206.19
2018-12-31T20:57:02.210Z,78202.19
2018-12-31T20:59:28.102Z,78199.19
2018-12-31T21:01:56.807Z,78198.19
2018-12-31T21:04:26.009Z,78199.19
2018-12-31T21:06:53.594Z,78194.18
2018-12-31T21:09:19.944Z,78192.17
2018-12-31T21:11:49.358Z,78190.17
2018-12-31T21:14:15.263Z,78190.17
2018-12-31T21:16:41.212Z,78179.16
2018-12-31T21:19:10.238Z,78180.16
2018-12-31T21:21:36.178Z,78172.16
2018-12-31T21:24:05.781Z,78179.16
2018-12-31T21:26:34.496Z,78175.16
2018-12-31T21:29:03.433Z,78175.16
2018-12-31T21:31:32.894Z,78176.16
2018-12-31T21:33:58.842Z,78170.16
2018-12-31T21:36:27.508Z,78179.16
2018-12-31T21:38:53.886Z,78176.16
2018-12-31T21:41:20.150Z,78164.14
2018-12-31T21:43:46.092Z,78166.14
2018-12-31T21:46:11.994Z,78167.15
2018-12-31T21:48:37.943Z,78156.13
2018-12-31T21:51:03.849Z,78160.14
2018-12-31T21:53:30.152Z,78157.13
2018-12-31T21:55:56.048Z,78155.13
2018-12-31T21:58:25.058Z,78149.13
2018-12-31T22:00:51.042Z,78147.13
2018-12-31T22:03:19.483Z,78154.13
2018-12-31T22:05:45.382Z,78152.13
2018-12-31T22:08:11.339Z,78158.13
2018-12-31T22:10:37.229Z,78147.13
2018-12-31T22:13:06.182Z,78144.12
2018-12-31T22:15:32.691Z,78148.13
2018-12-31T22:17:58.773Z,78140.11
2018-12-31T22:20:24.671Z,78137.11
2018-12-31T22:22:53.763Z,78137.11
2018-12-31T22:25:20.030Z,78137.11
2018-12-31T22:27:46.256Z,78140.11
2018-12-31T22:30:14.917Z,78136.11
2018-12-31T22:32:44.234Z,78132.11
2018-12-31T22:35:10.136Z,78137.11
2018-12-31T22:37:36.208Z,78129.10
2018-12-31T22:40:05.451Z,78129.10
2018-12-31T22:42:31.351Z,78127.09
2018-12-31T22:44:57.252Z,78128.09
2018-12-31T22:47:23.169Z,78122.09
2018-12-31T22:49:49.208Z,78125.09
2018-12-31T22:52:18.406Z,78130.10
2018-12-31T22:54:48.293Z,78124.09
2018-12-31T22:57:14.244Z,78126.09
2018-12-31T22:59:43.149Z,78122.09
2018-12-31T23:02:12.371Z,78112.08
2018-12-31T23:04:38.646Z,78110.08
2018-12-31T23:07:04.847Z,78103.07
2018-12-31T23:09:30.795Z,78098.06
2018-12-31T23:11:59.709Z,78097.06
2018-12-31T23:14:29.241Z,78097.06
2018-12-31T23:16:55.900Z,78091.06
2018-12-31T23:19:24.673Z,78082.05
2018-12-31T23:21:50.783Z,78084.05
2018-12-31T23:24:19.879Z,78084.05
2018-12-31T23:26:48.781Z,78082.05
2018-12-31T23:29:17.831Z,78078.05
2018-12-31T23:31:48.035Z,78082.05
2018-12-31T23:34:13.988Z,78084.05
2018-12-31T23:36:42.647Z,78085.05
2018-12-31T23:39:08.596Z,78081.05
2018-12-31T23:41:37.498Z,78077.05
2018-12-31T23:44:06.580Z,78080.05
2018-12-31T23:46:35.520Z,78073.03
2018-12-31T23:49:04.704Z,78064.02
2018-12-31T23:51:30.629Z,78064.02
2018-12-31T23:53:59.680Z,78055.02
2018-12-31T23:56:28.614Z,78051.01
2018-12-31T23:58:54.504Z,78062.02
